<?xml version="1.0" encoding="UTF-8" standalone="no" ?>
<gpx xmlns="http://www.topografix.com/GPX/1/1" xmlns:xsi="http://www.w3.org/2001/XMLSchema-instance" xsi:schemaLocation="http://www.topografix.com/GPX/1/1 http://www.topografix.com/GPX/1/1/gpx.xsd" version="1.1" creator="VisuGPX - https://www.visugpx.com">
  <metadata>
    <name>Le Tarn panoramique à Ambialet</name>
    <desc><![CDATA[Le Tarn panoramique à Ambialet]]></desc>
  </metadata>
  <wpt lat="43.94491" lon="2.37784">
    <ele>207.4</ele>
    <name><![CDATA[D.Parking randonneurs - Pont sur le]]></name>
  </wpt>
  <wpt lat="43.94309" lon="2.36838">
    <ele>196.7</ele>
    <name><![CDATA[1.La Condomine - Rue de la Garrigue]]></name>
    <type><![CDATA[_]]></type>
  </wpt>
  <wpt lat="43.94034" lon="2.36016">
    <ele>195.9</ele>
    <name><![CDATA[2.Eglise St Pierre]]></name>
    <type><![CDATA[_]]></type>
  </wpt>
  <wpt lat="43.93876" lon="2.35703">
    <ele>204.7</ele>
    <name><![CDATA[3.Virage de la route]]></name>
    <type><![CDATA[_]]></type>
  </wpt>
  <wpt lat="43.92768" lon="2.35945">
    <ele>429.4</ele>
    <name><![CDATA[4.Intersection de routes]]></name>
    <type><![CDATA[_]]></type>
  </wpt>
  <wpt lat="43.93588" lon="2.37138">
    <ele>355.3</ele>
    <name><![CDATA[5.Aller-retour point de vue]]></name>
    <type><![CDATA[_]]></type>
  </wpt>
  <wpt lat="43.94029" lon="2.37394">
    <ele>419.8</ele>
    <name><![CDATA[6.Sommet du Puech]]></name>
    <type><![CDATA[_]]></type>
  </wpt>
  <wpt lat="43.92889" lon="2.37453">
    <ele>255.1</ele>
    <name><![CDATA[7.Intersection chemin / route]]></name>
    <type><![CDATA[_]]></type>
  </wpt>
  <wpt lat="43.92608" lon="2.37752">
    <ele>237.5</ele>
    <name><![CDATA[8.Intersection de routes]]></name>
    <type><![CDATA[_]]></type>
  </wpt>
  <wpt lat="43.93325" lon="2.38363">
    <ele>290</ele>
    <name><![CDATA[9.Vinçou]]></name>
    <type><![CDATA[_]]></type>
  </wpt>
  <wpt lat="43.94019" lon="2.38543">
    <ele>202.1</ele>
    <name><![CDATA[10.Blasou]]></name>
    <type><![CDATA[__]]></type>
  </wpt>
  <wpt lat="43.94695" lon="2.37875">
    <ele>194.5</ele>
    <name><![CDATA[11.Carrefour, fontaine]]></name>
    <type><![CDATA[__]]></type>
  </wpt>
  <wpt lat="43.94997" lon="2.38059">
    <ele>287.7</ele>
    <name><![CDATA[12.Chapelle Notre Dane de l'Auder]]></name>
    <type><![CDATA[__]]></type>
  </wpt>
  <wpt lat="43.95576" lon="2.38011">
    <ele>243.6</ele>
    <name><![CDATA[13.Intersection chemin / route]]></name>
    <type><![CDATA[__]]></type>
  </wpt>
  <wpt lat="43.94491" lon="2.37784">
    <ele>207.3</ele>
    <name><![CDATA[A.Parking randonneurs]]></name>
  </wpt>
  <trk>
    <name><![CDATA[Le Tarn panoramique à Ambialet]]></name>
    <extensions>
      <line xmlns="http://www.topografix.com/GPX/gpx_style/0/2">
        <color>0000FF</color>
        <width>4</width>
      </line>
    </extensions>
    <trkseg>
      <trkpt lat="43.94477" lon="2.37793">
        <ele>221</ele>
        <time>2022-12-14T08:37:47.000Z</time>
      </trkpt>
      <trkpt lat="43.94475" lon="2.37765">
        <ele>205</ele>
        <time>2022-12-14T08:40:58.000Z</time>
      </trkpt>
      <trkpt lat="43.94458" lon="2.37742">
        <ele>205</ele>
        <time>2022-12-14T08:41:35.000Z</time>
      </trkpt>
      <trkpt lat="43.94445" lon="2.37715">
        <ele>205</ele>
        <time>2022-12-14T08:41:54.000Z</time>
      </trkpt>
      <trkpt lat="43.94431" lon="2.37689">
        <ele>205</ele>
        <time>2022-12-14T08:42:13.000Z</time>
      </trkpt>
      <trkpt lat="43.94426" lon="2.37657">
        <ele>205</ele>
        <time>2022-12-14T08:42:53.000Z</time>
      </trkpt>
      <trkpt lat="43.94415" lon="2.3763">
        <ele>203</ele>
        <time>2022-12-14T08:43:23.000Z</time>
      </trkpt>
      <trkpt lat="43.94419" lon="2.37599">
        <ele>191</ele>
        <time>2022-12-14T08:45:31.000Z</time>
      </trkpt>
      <trkpt lat="43.94409" lon="2.3757">
        <ele>188</ele>
        <time>2022-12-14T08:46:15.000Z</time>
      </trkpt>
      <trkpt lat="43.94397" lon="2.37543">
        <ele>191</ele>
        <time>2022-12-14T08:46:42.000Z</time>
      </trkpt>
      <trkpt lat="43.94385" lon="2.37514">
        <ele>191</ele>
        <time>2022-12-14T08:47:09.000Z</time>
      </trkpt>
      <trkpt lat="43.9438" lon="2.37484">
        <ele>192</ele>
        <time>2022-12-14T08:47:33.000Z</time>
      </trkpt>
      <trkpt lat="43.94377" lon="2.37453">
        <ele>192</ele>
        <time>2022-12-14T08:48:17.000Z</time>
      </trkpt>
      <trkpt lat="43.94371" lon="2.37422">
        <ele>192</ele>
        <time>2022-12-14T08:48:44.000Z</time>
      </trkpt>
      <trkpt lat="43.94367" lon="2.37392">
        <ele>195</ele>
        <time>2022-12-14T08:49:20.000Z</time>
      </trkpt>
      <trkpt lat="43.94364" lon="2.3736">
        <ele>195</ele>
        <time>2022-12-14T08:49:54.000Z</time>
      </trkpt>
      <trkpt lat="43.94368" lon="2.37329">
        <ele>192</ele>
        <time>2022-12-14T08:50:18.000Z</time>
      </trkpt>
      <trkpt lat="43.94363" lon="2.37299">
        <ele>192</ele>
        <time>2022-12-14T08:50:44.000Z</time>
      </trkpt>
      <trkpt lat="43.94365" lon="2.37267">
        <ele>190</ele>
        <time>2022-12-14T08:51:14.000Z</time>
      </trkpt>
      <trkpt lat="43.94359" lon="2.37235">
        <ele>190</ele>
        <time>2022-12-14T08:52:18.000Z</time>
      </trkpt>
      <trkpt lat="43.94346" lon="2.3721">
        <ele>196</ele>
        <time>2022-12-14T08:52:58.000Z</time>
      </trkpt>
      <trkpt lat="43.94349" lon="2.37179">
        <ele>193</ele>
        <time>2022-12-14T08:53:34.000Z</time>
      </trkpt>
      <trkpt lat="43.94349" lon="2.37148">
        <ele>191</ele>
        <time>2022-12-14T08:54:04.000Z</time>
      </trkpt>
      <trkpt lat="43.94347" lon="2.37117">
        <ele>193</ele>
        <time>2022-12-14T08:54:46.000Z</time>
      </trkpt>
      <trkpt lat="43.94348" lon="2.37084">
        <ele>192</ele>
        <time>2022-12-14T08:55:25.000Z</time>
      </trkpt>
      <trkpt lat="43.94347" lon="2.37053">
        <ele>190</ele>
        <time>2022-12-14T08:55:59.000Z</time>
      </trkpt>
      <trkpt lat="43.94347" lon="2.37021">
        <ele>188</ele>
        <time>2022-12-14T08:56:51.000Z</time>
      </trkpt>
      <trkpt lat="43.94346" lon="2.3699">
        <ele>188</ele>
        <time>2022-12-14T08:57:23.000Z</time>
      </trkpt>
      <trkpt lat="43.94338" lon="2.36959">
        <ele>188</ele>
        <time>2022-12-14T08:58:01.000Z</time>
      </trkpt>
      <trkpt lat="43.94331" lon="2.3693">
        <ele>191</ele>
        <time>2022-12-14T08:58:21.000Z</time>
      </trkpt>
      <trkpt lat="43.94323" lon="2.369">
        <ele>193</ele>
        <time>2022-12-14T08:58:43.000Z</time>
      </trkpt>
      <trkpt lat="43.94316" lon="2.36869">
        <ele>197</ele>
        <time>2022-12-14T08:59:06.000Z</time>
      </trkpt>
      <trkpt lat="43.94309" lon="2.36838">
        <ele>198</ele>
        <time>2022-12-14T08:59:27.000Z</time>
      </trkpt>
      <trkpt lat="43.94305" lon="2.36807">
        <ele>198</ele>
        <time>2022-12-14T08:59:46.000Z</time>
      </trkpt>
      <trkpt lat="43.94303" lon="2.36776">
        <ele>198</ele>
        <time>2022-12-14T09:00:45.000Z</time>
      </trkpt>
      <trkpt lat="43.94291" lon="2.36749">
        <ele>195</ele>
        <time>2022-12-14T09:01:03.000Z</time>
      </trkpt>
      <trkpt lat="43.94277" lon="2.36723">
        <ele>195</ele>
        <time>2022-12-14T09:01:22.000Z</time>
      </trkpt>
      <trkpt lat="43.94266" lon="2.36696">
        <ele>194</ele>
        <time>2022-12-14T09:01:38.000Z</time>
      </trkpt>
      <trkpt lat="43.94257" lon="2.36665">
        <ele>195</ele>
        <time>2022-12-14T09:01:56.000Z</time>
      </trkpt>
      <trkpt lat="43.94249" lon="2.36636">
        <ele>195</ele>
        <time>2022-12-14T09:02:13.000Z</time>
      </trkpt>
      <trkpt lat="43.94242" lon="2.36605">
        <ele>195</ele>
        <time>2022-12-14T09:02:30.000Z</time>
      </trkpt>
      <trkpt lat="43.94237" lon="2.36573">
        <ele>195</ele>
        <time>2022-12-14T09:02:47.000Z</time>
      </trkpt>
      <trkpt lat="43.94227" lon="2.36543">
        <ele>195</ele>
        <time>2022-12-14T09:03:06.000Z</time>
      </trkpt>
      <trkpt lat="43.94216" lon="2.36516">
        <ele>195</ele>
        <time>2022-12-14T09:03:24.000Z</time>
      </trkpt>
      <trkpt lat="43.94206" lon="2.36488">
        <ele>196</ele>
        <time>2022-12-14T09:03:42.000Z</time>
      </trkpt>
      <trkpt lat="43.94195" lon="2.36459">
        <ele>196</ele>
        <time>2022-12-14T09:04:00.000Z</time>
      </trkpt>
      <trkpt lat="43.94184" lon="2.36431">
        <ele>196</ele>
        <time>2022-12-14T09:04:17.000Z</time>
      </trkpt>
      <trkpt lat="43.94175" lon="2.36402">
        <ele>196</ele>
        <time>2022-12-14T09:04:35.000Z</time>
      </trkpt>
      <trkpt lat="43.94166" lon="2.36373">
        <ele>196</ele>
        <time>2022-12-14T09:04:53.000Z</time>
      </trkpt>
      <trkpt lat="43.94155" lon="2.36345">
        <ele>196</ele>
        <time>2022-12-14T09:05:10.000Z</time>
      </trkpt>
      <trkpt lat="43.94143" lon="2.36308">
        <ele>196</ele>
        <time>2022-12-14T09:06:43.000Z</time>
      </trkpt>
      <trkpt lat="43.94131" lon="2.3628">
        <ele>195</ele>
        <time>2022-12-14T09:07:02.000Z</time>
      </trkpt>
      <trkpt lat="43.94119" lon="2.36253">
        <ele>196</ele>
        <time>2022-12-14T09:07:20.000Z</time>
      </trkpt>
      <trkpt lat="43.94108" lon="2.36225">
        <ele>195</ele>
        <time>2022-12-14T09:07:39.000Z</time>
      </trkpt>
      <trkpt lat="43.94097" lon="2.36197">
        <ele>195</ele>
        <time>2022-12-14T09:07:55.000Z</time>
      </trkpt>
      <trkpt lat="43.94085" lon="2.36169">
        <ele>195</ele>
        <time>2022-12-14T09:08:11.000Z</time>
      </trkpt>
      <trkpt lat="43.94074" lon="2.36141">
        <ele>195</ele>
        <time>2022-12-14T09:08:28.000Z</time>
      </trkpt>
      <trkpt lat="43.94064" lon="2.36113">
        <ele>195</ele>
        <time>2022-12-14T09:08:46.000Z</time>
      </trkpt>
      <trkpt lat="43.94054" lon="2.36083">
        <ele>195</ele>
        <time>2022-12-14T09:09:04.000Z</time>
      </trkpt>
      <trkpt lat="43.94045" lon="2.36053">
        <ele>195</ele>
        <time>2022-12-14T09:09:21.000Z</time>
      </trkpt>
      <trkpt lat="43.94034" lon="2.36016">
        <ele>195</ele>
        <time>2022-12-14T09:09:40.000Z</time>
      </trkpt>
      <trkpt lat="43.94056" lon="2.36009">
        <ele>195</ele>
        <time>2022-12-14T09:10:07.000Z</time>
      </trkpt>
      <trkpt lat="43.94079" lon="2.35999">
        <ele>195</ele>
        <time>2022-12-14T09:10:40.000Z</time>
      </trkpt>
      <trkpt lat="43.941" lon="2.35988">
        <ele>195</ele>
        <time>2022-12-14T09:10:56.000Z</time>
      </trkpt>
      <trkpt lat="43.94096" lon="2.35947">
        <ele>196</ele>
        <time>2022-12-14T09:12:12.000Z</time>
      </trkpt>
      <trkpt lat="43.94121" lon="2.3594">
        <ele>195</ele>
        <time>2022-12-14T09:12:35.000Z</time>
      </trkpt>
      <trkpt lat="43.9411" lon="2.35913">
        <ele>196</ele>
        <time>2022-12-14T09:13:12.000Z</time>
      </trkpt>
      <trkpt lat="43.94124" lon="2.35939">
        <ele>195</ele>
        <time>2022-12-14T09:14:21.000Z</time>
      </trkpt>
      <trkpt lat="43.94096" lon="2.35946">
        <ele>196</ele>
        <time>2022-12-14T09:16:17.000Z</time>
      </trkpt>
      <trkpt lat="43.94091" lon="2.35897">
        <ele>195</ele>
        <time>2022-12-14T09:16:59.000Z</time>
      </trkpt>
      <trkpt lat="43.941" lon="2.35867">
        <ele>193</ele>
        <time>2022-12-14T09:17:19.000Z</time>
      </trkpt>
      <trkpt lat="43.94079" lon="2.35853">
        <ele>194</ele>
        <time>2022-12-14T09:18:16.000Z</time>
      </trkpt>
      <trkpt lat="43.94055" lon="2.35849">
        <ele>195</ele>
        <time>2022-12-14T09:18:34.000Z</time>
      </trkpt>
      <trkpt lat="43.94032" lon="2.35843">
        <ele>194</ele>
        <time>2022-12-14T09:18:52.000Z</time>
      </trkpt>
      <trkpt lat="43.94011" lon="2.35832">
        <ele>194</ele>
        <time>2022-12-14T09:19:08.000Z</time>
      </trkpt>
      <trkpt lat="43.93978" lon="2.35817">
        <ele>194</ele>
        <time>2022-12-14T09:19:27.000Z</time>
      </trkpt>
      <trkpt lat="43.93986" lon="2.35862">
        <ele>194</ele>
        <time>2022-12-14T09:20:05.000Z</time>
      </trkpt>
      <trkpt lat="43.93995" lon="2.35892">
        <ele>193</ele>
        <time>2022-12-14T09:20:23.000Z</time>
      </trkpt>
      <trkpt lat="43.94004" lon="2.35922">
        <ele>194</ele>
        <time>2022-12-14T09:20:40.000Z</time>
      </trkpt>
      <trkpt lat="43.94016" lon="2.35965">
        <ele>194</ele>
        <time>2022-12-14T09:20:58.000Z</time>
      </trkpt>
      <trkpt lat="43.94001" lon="2.35978">
        <ele>196</ele>
        <time>2022-12-14T09:21:22.000Z</time>
      </trkpt>
      <trkpt lat="43.93978" lon="2.35984">
        <ele>195</ele>
        <time>2022-12-14T09:21:38.000Z</time>
      </trkpt>
      <trkpt lat="43.93967" lon="2.35955">
        <ele>197</ele>
        <time>2022-12-14T09:22:05.000Z</time>
      </trkpt>
      <trkpt lat="43.9396" lon="2.35925">
        <ele>196</ele>
        <time>2022-12-14T09:22:24.000Z</time>
      </trkpt>
      <trkpt lat="43.93957" lon="2.35893">
        <ele>196</ele>
        <time>2022-12-14T09:22:40.000Z</time>
      </trkpt>
      <trkpt lat="43.9395" lon="2.35861">
        <ele>198</ele>
        <time>2022-12-14T09:22:57.000Z</time>
      </trkpt>
      <trkpt lat="43.93942" lon="2.35832">
        <ele>198</ele>
        <time>2022-12-14T09:23:29.000Z</time>
      </trkpt>
      <trkpt lat="43.93934" lon="2.35801">
        <ele>199</ele>
        <time>2022-12-14T09:23:46.000Z</time>
      </trkpt>
      <trkpt lat="43.93927" lon="2.3577">
        <ele>200</ele>
        <time>2022-12-14T09:24:03.000Z</time>
      </trkpt>
      <trkpt lat="43.93915" lon="2.35743">
        <ele>203</ele>
        <time>2022-12-14T09:24:21.000Z</time>
      </trkpt>
      <trkpt lat="43.93897" lon="2.35723">
        <ele>204</ele>
        <time>2022-12-14T09:24:40.000Z</time>
      </trkpt>
      <trkpt lat="43.93876" lon="2.35703">
        <ele>207</ele>
        <time>2022-12-14T09:24:56.000Z</time>
      </trkpt>
      <trkpt lat="43.93844" lon="2.3571">
        <ele>212</ele>
        <time>2022-12-14T09:25:32.000Z</time>
      </trkpt>
      <trkpt lat="43.93837" lon="2.35747">
        <ele>212</ele>
        <time>2022-12-14T09:25:58.000Z</time>
      </trkpt>
      <trkpt lat="43.93843" lon="2.35777">
        <ele>216</ele>
        <time>2022-12-14T09:26:31.000Z</time>
      </trkpt>
      <trkpt lat="43.93824" lon="2.35806">
        <ele>223</ele>
        <time>2022-12-14T09:26:54.000Z</time>
      </trkpt>
      <trkpt lat="43.93847" lon="2.35795">
        <ele>223</ele>
        <time>2022-12-14T09:27:54.000Z</time>
      </trkpt>
      <trkpt lat="43.9387" lon="2.35792">
        <ele>225</ele>
        <time>2022-12-14T09:28:22.000Z</time>
      </trkpt>
      <trkpt lat="43.93885" lon="2.35817">
        <ele>230</ele>
        <time>2022-12-14T09:28:46.000Z</time>
      </trkpt>
      <trkpt lat="43.93864" lon="2.35831">
        <ele>234</ele>
        <time>2022-12-14T09:29:14.000Z</time>
      </trkpt>
      <trkpt lat="43.93844" lon="2.35846">
        <ele>237</ele>
        <time>2022-12-14T09:30:02.000Z</time>
      </trkpt>
      <trkpt lat="43.93826" lon="2.35865">
        <ele>241</ele>
        <time>2022-12-14T09:30:26.000Z</time>
      </trkpt>
      <trkpt lat="43.93806" lon="2.35882">
        <ele>246</ele>
        <time>2022-12-14T09:30:57.000Z</time>
      </trkpt>
      <trkpt lat="43.93786" lon="2.35899">
        <ele>251</ele>
        <time>2022-12-14T09:31:26.000Z</time>
      </trkpt>
      <trkpt lat="43.93766" lon="2.35916">
        <ele>254</ele>
        <time>2022-12-14T09:31:53.000Z</time>
      </trkpt>
      <trkpt lat="43.93748" lon="2.35936">
        <ele>260</ele>
        <time>2022-12-14T09:32:29.000Z</time>
      </trkpt>
      <trkpt lat="43.93726" lon="2.35943">
        <ele>264</ele>
        <time>2022-12-14T09:32:54.000Z</time>
      </trkpt>
      <trkpt lat="43.93705" lon="2.35956">
        <ele>268</ele>
        <time>2022-12-14T09:33:24.000Z</time>
      </trkpt>
      <trkpt lat="43.93684" lon="2.35967">
        <ele>271</ele>
        <time>2022-12-14T09:33:49.000Z</time>
      </trkpt>
      <trkpt lat="43.93662" lon="2.35975">
        <ele>276</ele>
        <time>2022-12-14T09:34:17.000Z</time>
      </trkpt>
      <trkpt lat="43.93639" lon="2.35976">
        <ele>280</ele>
        <time>2022-12-14T09:34:43.000Z</time>
      </trkpt>
      <trkpt lat="43.93623" lon="2.35998">
        <ele>284</ele>
        <time>2022-12-14T09:37:32.000Z</time>
      </trkpt>
      <trkpt lat="43.936" lon="2.36004">
        <ele>287</ele>
        <time>2022-12-14T09:38:01.000Z</time>
      </trkpt>
      <trkpt lat="43.93578" lon="2.36014">
        <ele>291</ele>
        <time>2022-12-14T09:38:26.000Z</time>
      </trkpt>
      <trkpt lat="43.93554" lon="2.36012">
        <ele>296</ele>
        <time>2022-12-14T09:38:52.000Z</time>
      </trkpt>
      <trkpt lat="43.93525" lon="2.35992">
        <ele>296</ele>
        <time>2022-12-14T09:39:21.000Z</time>
      </trkpt>
      <trkpt lat="43.93509" lon="2.36008">
        <ele>303</ele>
        <time>2022-12-14T09:39:45.000Z</time>
      </trkpt>
      <trkpt lat="43.93517" lon="2.36037">
        <ele>308</ele>
        <time>2022-12-14T09:40:19.000Z</time>
      </trkpt>
      <trkpt lat="43.93485" lon="2.36045">
        <ele>316</ele>
        <time>2022-12-14T09:42:19.000Z</time>
      </trkpt>
      <trkpt lat="43.93452" lon="2.36053">
        <ele>325</ele>
        <time>2022-12-14T09:43:03.000Z</time>
      </trkpt>
      <trkpt lat="43.93431" lon="2.36066">
        <ele>331</ele>
        <time>2022-12-14T09:43:33.000Z</time>
      </trkpt>
      <trkpt lat="43.93409" lon="2.36069">
        <ele>336</ele>
        <time>2022-12-14T09:43:59.000Z</time>
      </trkpt>
      <trkpt lat="43.93386" lon="2.36071">
        <ele>341</ele>
        <time>2022-12-14T09:44:32.000Z</time>
      </trkpt>
      <trkpt lat="43.93363" lon="2.36071">
        <ele>347</ele>
        <time>2022-12-14T09:45:04.000Z</time>
      </trkpt>
      <trkpt lat="43.9334" lon="2.36067">
        <ele>352</ele>
        <time>2022-12-14T09:46:30.000Z</time>
      </trkpt>
      <trkpt lat="43.93318" lon="2.36067">
        <ele>359</ele>
        <time>2022-12-14T09:47:08.000Z</time>
      </trkpt>
      <trkpt lat="43.93296" lon="2.3606">
        <ele>364</ele>
        <time>2022-12-14T09:47:41.000Z</time>
      </trkpt>
      <trkpt lat="43.93274" lon="2.36051">
        <ele>366</ele>
        <time>2022-12-14T09:48:09.000Z</time>
      </trkpt>
      <trkpt lat="43.93251" lon="2.36057">
        <ele>372</ele>
        <time>2022-12-14T09:48:33.000Z</time>
      </trkpt>
      <trkpt lat="43.93228" lon="2.36065">
        <ele>377</ele>
        <time>2022-12-14T09:49:00.000Z</time>
      </trkpt>
      <trkpt lat="43.93206" lon="2.36072">
        <ele>380</ele>
        <time>2022-12-14T09:49:31.000Z</time>
      </trkpt>
      <trkpt lat="43.93183" lon="2.36076">
        <ele>384</ele>
        <time>2022-12-14T09:50:03.000Z</time>
      </trkpt>
      <trkpt lat="43.9316" lon="2.36078">
        <ele>388</ele>
        <time>2022-12-14T09:50:28.000Z</time>
      </trkpt>
      <trkpt lat="43.93135" lon="2.3608">
        <ele>392</ele>
        <time>2022-12-14T09:51:02.000Z</time>
      </trkpt>
      <trkpt lat="43.93113" lon="2.3608">
        <ele>395</ele>
        <time>2022-12-14T09:52:02.000Z</time>
      </trkpt>
      <trkpt lat="43.93091" lon="2.36086">
        <ele>398</ele>
        <time>2022-12-14T09:52:26.000Z</time>
      </trkpt>
      <trkpt lat="43.93069" lon="2.36093">
        <ele>400</ele>
        <time>2022-12-14T09:52:46.000Z</time>
      </trkpt>
      <trkpt lat="43.93046" lon="2.36098">
        <ele>403</ele>
        <time>2022-12-14T09:53:10.000Z</time>
      </trkpt>
      <trkpt lat="43.93023" lon="2.36098">
        <ele>406</ele>
        <time>2022-12-14T09:53:29.000Z</time>
      </trkpt>
      <trkpt lat="43.93001" lon="2.36088">
        <ele>407</ele>
        <time>2022-12-14T09:53:57.000Z</time>
      </trkpt>
      <trkpt lat="43.92984" lon="2.36068">
        <ele>410</ele>
        <time>2022-12-14T09:54:22.000Z</time>
      </trkpt>
      <trkpt lat="43.92972" lon="2.3604">
        <ele>413</ele>
        <time>2022-12-14T09:55:13.000Z</time>
      </trkpt>
      <trkpt lat="43.92959" lon="2.36014">
        <ele>416</ele>
        <time>2022-12-14T09:55:34.000Z</time>
      </trkpt>
      <trkpt lat="43.92951" lon="2.35984">
        <ele>419</ele>
        <time>2022-12-14T09:55:58.000Z</time>
      </trkpt>
      <trkpt lat="43.92946" lon="2.35954">
        <ele>422</ele>
        <time>2022-12-14T09:56:19.000Z</time>
      </trkpt>
      <trkpt lat="43.92932" lon="2.35931">
        <ele>425</ele>
        <time>2022-12-14T09:57:15.000Z</time>
      </trkpt>
      <trkpt lat="43.92898" lon="2.35924">
        <ele>425</ele>
        <time>2022-12-14T09:57:54.000Z</time>
      </trkpt>
      <trkpt lat="43.9286" lon="2.35933">
        <ele>425</ele>
        <time>2022-12-14T09:58:42.000Z</time>
      </trkpt>
      <trkpt lat="43.92837" lon="2.35936">
        <ele>425</ele>
        <time>2022-12-14T09:59:05.000Z</time>
      </trkpt>
      <trkpt lat="43.92814" lon="2.3594">
        <ele>427</ele>
        <time>2022-12-14T09:59:23.000Z</time>
      </trkpt>
      <trkpt lat="43.92791" lon="2.35942">
        <ele>428</ele>
        <time>2022-12-14T09:59:43.000Z</time>
      </trkpt>
      <trkpt lat="43.92768" lon="2.35945">
        <ele>430</ele>
        <time>2022-12-14T10:00:28.000Z</time>
      </trkpt>
      <trkpt lat="43.9274" lon="2.35945">
        <ele>430</ele>
        <time>2022-12-14T10:01:00.000Z</time>
      </trkpt>
      <trkpt lat="43.92712" lon="2.35946">
        <ele>430</ele>
        <time>2022-12-14T10:01:32.000Z</time>
      </trkpt>
      <trkpt lat="43.92656" lon="2.35947">
        <ele>428</ele>
        <time>2022-12-14T10:02:37.000Z</time>
      </trkpt>
      <trkpt lat="43.92671" lon="2.35976">
        <ele>428</ele>
        <time>2022-12-14T10:03:07.000Z</time>
      </trkpt>
      <trkpt lat="43.92692" lon="2.36018">
        <ele>427</ele>
        <time>2022-12-14T10:03:49.000Z</time>
      </trkpt>
      <trkpt lat="43.92706" lon="2.36057">
        <ele>426</ele>
        <time>2022-12-14T10:04:25.000Z</time>
      </trkpt>
      <trkpt lat="43.92721" lon="2.36097">
        <ele>425</ele>
        <time>2022-12-14T10:05:02.000Z</time>
      </trkpt>
      <trkpt lat="43.92759" lon="2.3613">
        <ele>429</ele>
        <time>2022-12-14T10:04:31.000Z</time>
      </trkpt>
      <trkpt lat="43.92776" lon="2.36153">
        <ele>430</ele>
        <time>2022-12-14T10:04:50.000Z</time>
      </trkpt>
      <trkpt lat="43.92793" lon="2.36173">
        <ele>430</ele>
        <time>2022-12-14T10:05:09.000Z</time>
      </trkpt>
      <trkpt lat="43.92813" lon="2.36191">
        <ele>430</ele>
        <time>2022-12-14T10:05:27.000Z</time>
      </trkpt>
      <trkpt lat="43.92834" lon="2.36205">
        <ele>430</ele>
        <time>2022-12-14T10:05:44.000Z</time>
      </trkpt>
      <trkpt lat="43.92855" lon="2.36219">
        <ele>429</ele>
        <time>2022-12-14T10:06:01.000Z</time>
      </trkpt>
      <trkpt lat="43.92874" lon="2.36235">
        <ele>429</ele>
        <time>2022-12-14T10:06:18.000Z</time>
      </trkpt>
      <trkpt lat="43.92893" lon="2.36256">
        <ele>430</ele>
        <time>2022-12-14T10:06:36.000Z</time>
      </trkpt>
      <trkpt lat="43.92907" lon="2.36281">
        <ele>430</ele>
        <time>2022-12-14T10:06:54.000Z</time>
      </trkpt>
      <trkpt lat="43.92921" lon="2.36307">
        <ele>431</ele>
        <time>2022-12-14T10:07:13.000Z</time>
      </trkpt>
      <trkpt lat="43.92937" lon="2.36331">
        <ele>432</ele>
        <time>2022-12-14T10:07:41.000Z</time>
      </trkpt>
      <trkpt lat="43.92953" lon="2.36353">
        <ele>433</ele>
        <time>2022-12-14T10:08:16.000Z</time>
      </trkpt>
      <trkpt lat="43.92966" lon="2.36378">
        <ele>432</ele>
        <time>2022-12-14T10:08:37.000Z</time>
      </trkpt>
      <trkpt lat="43.92979" lon="2.36404">
        <ele>429</ele>
        <time>2022-12-14T10:09:05.000Z</time>
      </trkpt>
      <trkpt lat="43.92987" lon="2.36433">
        <ele>424</ele>
        <time>2022-12-14T10:09:31.000Z</time>
      </trkpt>
      <trkpt lat="43.93" lon="2.36461">
        <ele>420</ele>
        <time>2022-12-14T10:09:54.000Z</time>
      </trkpt>
      <trkpt lat="43.93016" lon="2.36483">
        <ele>419</ele>
        <time>2022-12-14T10:10:12.000Z</time>
      </trkpt>
      <trkpt lat="43.93035" lon="2.36501">
        <ele>416</ele>
        <time>2022-12-14T10:10:36.000Z</time>
      </trkpt>
      <trkpt lat="43.93055" lon="2.36517">
        <ele>414</ele>
        <time>2022-12-14T10:10:59.000Z</time>
      </trkpt>
      <trkpt lat="43.93075" lon="2.36533">
        <ele>412</ele>
        <time>2022-12-14T10:11:57.000Z</time>
      </trkpt>
      <trkpt lat="43.93095" lon="2.3655">
        <ele>411</ele>
        <time>2022-12-14T10:12:42.000Z</time>
      </trkpt>
      <trkpt lat="43.93115" lon="2.36563">
        <ele>409</ele>
        <time>2022-12-14T10:13:02.000Z</time>
      </trkpt>
      <trkpt lat="43.93136" lon="2.36579">
        <ele>406</ele>
        <time>2022-12-14T10:13:32.000Z</time>
      </trkpt>
      <trkpt lat="43.93151" lon="2.36601">
        <ele>403</ele>
        <time>2022-12-14T10:14:17.000Z</time>
      </trkpt>
      <trkpt lat="43.93166" lon="2.36625">
        <ele>401</ele>
        <time>2022-12-14T10:14:37.000Z</time>
      </trkpt>
      <trkpt lat="43.93178" lon="2.36652">
        <ele>396</ele>
        <time>2022-12-14T10:14:58.000Z</time>
      </trkpt>
      <trkpt lat="43.93189" lon="2.36681">
        <ele>393</ele>
        <time>2022-12-14T10:15:17.000Z</time>
      </trkpt>
      <trkpt lat="43.93199" lon="2.36711">
        <ele>388</ele>
        <time>2022-12-14T10:15:39.000Z</time>
      </trkpt>
      <trkpt lat="43.93208" lon="2.3674">
        <ele>385</ele>
        <time>2022-12-14T10:16:21.000Z</time>
      </trkpt>
      <trkpt lat="43.93224" lon="2.36763">
        <ele>381</ele>
        <time>2022-12-14T10:16:45.000Z</time>
      </trkpt>
      <trkpt lat="43.93244" lon="2.36778">
        <ele>379</ele>
        <time>2022-12-14T10:17:01.000Z</time>
      </trkpt>
      <trkpt lat="43.93263" lon="2.36795">
        <ele>378</ele>
        <time>2022-12-14T10:17:30.000Z</time>
      </trkpt>
      <trkpt lat="43.93285" lon="2.36806">
        <ele>374</ele>
        <time>2022-12-14T10:17:52.000Z</time>
      </trkpt>
      <trkpt lat="43.93306" lon="2.36821">
        <ele>372</ele>
        <time>2022-12-14T10:18:11.000Z</time>
      </trkpt>
      <trkpt lat="43.93327" lon="2.36836">
        <ele>371</ele>
        <time>2022-12-14T10:18:29.000Z</time>
      </trkpt>
      <trkpt lat="43.93347" lon="2.36851">
        <ele>369</ele>
        <time>2022-12-14T10:19:29.000Z</time>
      </trkpt>
      <trkpt lat="43.93367" lon="2.36866">
        <ele>367</ele>
        <time>2022-12-14T10:20:18.000Z</time>
      </trkpt>
      <trkpt lat="43.93387" lon="2.36882">
        <ele>368</ele>
        <time>2022-12-14T10:21:01.000Z</time>
      </trkpt>
      <trkpt lat="43.93406" lon="2.36898">
        <ele>368</ele>
        <time>2022-12-14T10:21:27.000Z</time>
      </trkpt>
      <trkpt lat="43.93427" lon="2.36912">
        <ele>365</ele>
        <time>2022-12-14T10:21:45.000Z</time>
      </trkpt>
      <trkpt lat="43.93447" lon="2.36927">
        <ele>363</ele>
        <time>2022-12-14T10:22:03.000Z</time>
      </trkpt>
      <trkpt lat="43.93464" lon="2.36948">
        <ele>361</ele>
        <time>2022-12-14T10:22:25.000Z</time>
      </trkpt>
      <trkpt lat="43.93479" lon="2.36972">
        <ele>360</ele>
        <time>2022-12-14T10:22:47.000Z</time>
      </trkpt>
      <trkpt lat="43.93494" lon="2.36996">
        <ele>358</ele>
        <time>2022-12-14T10:23:31.000Z</time>
      </trkpt>
      <trkpt lat="43.93506" lon="2.37023">
        <ele>358</ele>
        <time>2022-12-14T10:23:51.000Z</time>
      </trkpt>
      <trkpt lat="43.93521" lon="2.37049">
        <ele>357</ele>
        <time>2022-12-14T10:24:11.000Z</time>
      </trkpt>
      <trkpt lat="43.93536" lon="2.37073">
        <ele>356</ele>
        <time>2022-12-14T10:24:29.000Z</time>
      </trkpt>
      <trkpt lat="43.93551" lon="2.37097">
        <ele>356</ele>
        <time>2022-12-14T10:24:47.000Z</time>
      </trkpt>
      <trkpt lat="43.93568" lon="2.3712">
        <ele>356</ele>
        <time>2022-12-14T10:25:05.000Z</time>
      </trkpt>
      <trkpt lat="43.93588" lon="2.37138">
        <ele>356</ele>
        <time>2022-12-14T10:26:00.000Z</time>
      </trkpt>
      <trkpt lat="43.9362" lon="2.37182">
        <ele>360</ele>
        <time>2022-12-14T10:26:39.000Z</time>
      </trkpt>
      <trkpt lat="43.93651" lon="2.37227">
        <ele>367</ele>
        <time>2022-12-14T10:27:22.000Z</time>
      </trkpt>
      <trkpt lat="43.93696" lon="2.37208">
        <ele>371</ele>
        <time>2022-12-14T10:28:17.000Z</time>
      </trkpt>
      <trkpt lat="43.93742" lon="2.37212">
        <ele>376</ele>
        <time>2022-12-14T10:28:58.000Z</time>
      </trkpt>
      <trkpt lat="43.93788" lon="2.37206">
        <ele>381</ele>
        <time>2022-12-14T10:29:44.000Z</time>
      </trkpt>
      <trkpt lat="43.93834" lon="2.37202">
        <ele>384</ele>
        <time>2022-12-14T10:30:27.000Z</time>
      </trkpt>
      <trkpt lat="43.9388" lon="2.372">
        <ele>383</ele>
        <time>2022-12-14T10:31:14.000Z</time>
      </trkpt>
      <trkpt lat="43.93926" lon="2.37196">
        <ele>387</ele>
        <time>2022-12-14T10:31:54.000Z</time>
      </trkpt>
      <trkpt lat="43.93971" lon="2.37179">
        <ele>390</ele>
        <time>2022-12-14T10:32:42.000Z</time>
      </trkpt>
      <trkpt lat="43.94029" lon="2.37175">
        <ele>397</ele>
        <time>2022-12-14T10:33:26.000Z</time>
      </trkpt>
      <trkpt lat="43.94058" lon="2.37197">
        <ele>400</ele>
        <time>2022-12-14T10:34:56.000Z</time>
      </trkpt>
      <trkpt lat="43.94087" lon="2.37249">
        <ele>403</ele>
        <time>2022-12-14T10:35:37.000Z</time>
      </trkpt>
      <trkpt lat="43.94093" lon="2.37312">
        <ele>409</ele>
        <time>2022-12-14T10:36:20.000Z</time>
      </trkpt>
      <trkpt lat="43.94088" lon="2.37358">
        <ele>414</ele>
        <time>2022-12-14T10:37:50.000Z</time>
      </trkpt>
      <trkpt lat="43.94103" lon="2.37404">
        <ele>407</ele>
        <time>2022-12-14T10:38:59.000Z</time>
      </trkpt>
      <trkpt lat="43.9409" lon="2.37356">
        <ele>413</ele>
        <time>2022-12-14T10:45:07.000Z</time>
      </trkpt>
      <trkpt lat="43.94077" lon="2.37388">
        <ele>416</ele>
        <time>2022-12-14T10:45:43.000Z</time>
      </trkpt>
      <trkpt lat="43.94045" lon="2.37414">
        <ele>418</ele>
        <time>2022-12-14T10:46:04.000Z</time>
      </trkpt>
      <trkpt lat="43.94029" lon="2.37394">
        <ele>421</ele>
        <time>2022-12-14T10:48:45.000Z</time>
      </trkpt>
      <trkpt lat="43.94046" lon="2.37414">
        <ele>418</ele>
        <time>2022-12-14T10:50:28.000Z</time>
      </trkpt>
      <trkpt lat="43.94078" lon="2.37385">
        <ele>416</ele>
        <time>2022-12-14T10:50:49.000Z</time>
      </trkpt>
      <trkpt lat="43.94089" lon="2.37355">
        <ele>413</ele>
        <time>2022-12-14T10:51:50.000Z</time>
      </trkpt>
      <trkpt lat="43.94093" lon="2.37313">
        <ele>409</ele>
        <time>2022-12-14T10:52:39.000Z</time>
      </trkpt>
      <trkpt lat="43.94087" lon="2.37247">
        <ele>402</ele>
        <time>2022-12-14T10:53:49.000Z</time>
      </trkpt>
      <trkpt lat="43.9406" lon="2.37197">
        <ele>399</ele>
        <time>2022-12-14T10:54:27.000Z</time>
      </trkpt>
      <trkpt lat="43.94027" lon="2.37176">
        <ele>397</ele>
        <time>2022-12-14T10:55:20.000Z</time>
      </trkpt>
      <trkpt lat="43.93968" lon="2.3718">
        <ele>391</ele>
        <time>2022-12-14T10:55:58.000Z</time>
      </trkpt>
      <trkpt lat="43.93924" lon="2.37198">
        <ele>387</ele>
        <time>2022-12-14T10:56:36.000Z</time>
      </trkpt>
      <trkpt lat="43.93878" lon="2.37202">
        <ele>383</ele>
        <time>2022-12-14T10:57:14.000Z</time>
      </trkpt>
      <trkpt lat="43.93833" lon="2.37201">
        <ele>384</ele>
        <time>2022-12-14T10:57:51.000Z</time>
      </trkpt>
      <trkpt lat="43.93787" lon="2.37207">
        <ele>381</ele>
        <time>2022-12-14T10:58:27.000Z</time>
      </trkpt>
      <trkpt lat="43.93742" lon="2.37211">
        <ele>376</ele>
        <time>2022-12-14T10:59:06.000Z</time>
      </trkpt>
      <trkpt lat="43.93695" lon="2.37206">
        <ele>371</ele>
        <time>2022-12-14T10:59:43.000Z</time>
      </trkpt>
      <trkpt lat="43.9365" lon="2.37226">
        <ele>366</ele>
        <time>2022-12-14T11:00:23.000Z</time>
      </trkpt>
      <trkpt lat="43.93621" lon="2.37181">
        <ele>360</ele>
        <time>2022-12-14T11:01:00.000Z</time>
      </trkpt>
      <trkpt lat="43.93589" lon="2.37134">
        <ele>356</ele>
        <time>2022-12-14T11:01:54.000Z</time>
      </trkpt>
      <trkpt lat="43.93569" lon="2.37166">
        <ele>354</ele>
        <time>2022-12-14T11:03:10.000Z</time>
      </trkpt>
      <trkpt lat="43.93573" lon="2.37197">
        <ele>350</ele>
        <time>2022-12-14T11:03:58.000Z</time>
      </trkpt>
      <trkpt lat="43.93586" lon="2.37224">
        <ele>347</ele>
        <time>2022-12-14T11:04:21.000Z</time>
      </trkpt>
      <trkpt lat="43.93587" lon="2.37255">
        <ele>344</ele>
        <time>2022-12-14T11:05:04.000Z</time>
      </trkpt>
      <trkpt lat="43.93569" lon="2.37237">
        <ele>341</ele>
        <time>2022-12-14T11:05:32.000Z</time>
      </trkpt>
      <trkpt lat="43.93548" lon="2.37221">
        <ele>336</ele>
        <time>2022-12-14T11:05:57.000Z</time>
      </trkpt>
      <trkpt lat="43.93528" lon="2.37207">
        <ele>334</ele>
        <time>2022-12-14T11:06:17.000Z</time>
      </trkpt>
      <trkpt lat="43.93507" lon="2.37192">
        <ele>331</ele>
        <time>2022-12-14T11:06:36.000Z</time>
      </trkpt>
      <trkpt lat="43.93487" lon="2.37178">
        <ele>329</ele>
        <time>2022-12-14T11:06:56.000Z</time>
      </trkpt>
      <trkpt lat="43.93465" lon="2.37168">
        <ele>322</ele>
        <time>2022-12-14T11:07:14.000Z</time>
      </trkpt>
      <trkpt lat="43.93443" lon="2.37162">
        <ele>319</ele>
        <time>2022-12-14T11:07:50.000Z</time>
      </trkpt>
      <trkpt lat="43.93421" lon="2.37149">
        <ele>319</ele>
        <time>2022-12-14T11:08:13.000Z</time>
      </trkpt>
      <trkpt lat="43.93399" lon="2.37141">
        <ele>315</ele>
        <time>2022-12-14T11:08:35.000Z</time>
      </trkpt>
      <trkpt lat="43.93376" lon="2.37132">
        <ele>313</ele>
        <time>2022-12-14T11:08:55.000Z</time>
      </trkpt>
      <trkpt lat="43.93353" lon="2.37128">
        <ele>309</ele>
        <time>2022-12-14T11:09:14.000Z</time>
      </trkpt>
      <trkpt lat="43.9333" lon="2.37126">
        <ele>307</ele>
        <time>2022-12-14T11:09:32.000Z</time>
      </trkpt>
      <trkpt lat="43.93307" lon="2.37129">
        <ele>304</ele>
        <time>2022-12-14T11:09:52.000Z</time>
      </trkpt>
      <trkpt lat="43.93284" lon="2.37135">
        <ele>301</ele>
        <time>2022-12-14T11:10:12.000Z</time>
      </trkpt>
      <trkpt lat="43.93261" lon="2.37139">
        <ele>298</ele>
        <time>2022-12-14T11:10:31.000Z</time>
      </trkpt>
      <trkpt lat="43.93238" lon="2.37142">
        <ele>296</ele>
        <time>2022-12-14T11:10:52.000Z</time>
      </trkpt>
      <trkpt lat="43.93215" lon="2.37132">
        <ele>294</ele>
        <time>2022-12-14T11:11:15.000Z</time>
      </trkpt>
      <trkpt lat="43.93195" lon="2.37119">
        <ele>290</ele>
        <time>2022-12-14T11:11:53.000Z</time>
      </trkpt>
      <trkpt lat="43.93172" lon="2.37129">
        <ele>287</ele>
        <time>2022-12-14T11:12:16.000Z</time>
      </trkpt>
      <trkpt lat="43.9315" lon="2.37137">
        <ele>284</ele>
        <time>2022-12-14T11:12:38.000Z</time>
      </trkpt>
      <trkpt lat="43.93127" lon="2.37135">
        <ele>282</ele>
        <time>2022-12-14T11:12:56.000Z</time>
      </trkpt>
      <trkpt lat="43.93104" lon="2.37137">
        <ele>280</ele>
        <time>2022-12-14T11:13:15.000Z</time>
      </trkpt>
      <trkpt lat="43.93095" lon="2.37168">
        <ele>277</ele>
        <time>2022-12-14T11:13:57.000Z</time>
      </trkpt>
      <trkpt lat="43.93097" lon="2.372">
        <ele>276</ele>
        <time>2022-12-14T11:14:29.000Z</time>
      </trkpt>
      <trkpt lat="43.93097" lon="2.37233">
        <ele>275</ele>
        <time>2022-12-14T11:14:57.000Z</time>
      </trkpt>
      <trkpt lat="43.93076" lon="2.37246">
        <ele>275</ele>
        <time>2022-12-14T11:15:22.000Z</time>
      </trkpt>
      <trkpt lat="43.93053" lon="2.37245">
        <ele>271</ele>
        <time>2022-12-14T11:15:44.000Z</time>
      </trkpt>
      <trkpt lat="43.93031" lon="2.3725">
        <ele>266</ele>
        <time>2022-12-14T11:16:07.000Z</time>
      </trkpt>
      <trkpt lat="43.93016" lon="2.37275">
        <ele>263</ele>
        <time>2022-12-14T11:16:28.000Z</time>
      </trkpt>
      <trkpt lat="43.93002" lon="2.373">
        <ele>264</ele>
        <time>2022-12-14T11:16:48.000Z</time>
      </trkpt>
      <trkpt lat="43.92981" lon="2.37312">
        <ele>261</ele>
        <time>2022-12-14T11:17:09.000Z</time>
      </trkpt>
      <trkpt lat="43.92964" lon="2.37335">
        <ele>260</ele>
        <time>2022-12-14T11:17:28.000Z</time>
      </trkpt>
      <trkpt lat="43.92948" lon="2.37357">
        <ele>258</ele>
        <time>2022-12-14T11:17:54.000Z</time>
      </trkpt>
      <trkpt lat="43.92931" lon="2.37378">
        <ele>253</ele>
        <time>2022-12-14T11:18:20.000Z</time>
      </trkpt>
      <trkpt lat="43.92915" lon="2.374">
        <ele>253</ele>
        <time>2022-12-14T11:18:37.000Z</time>
      </trkpt>
      <trkpt lat="43.92902" lon="2.37426">
        <ele>254</ele>
        <time>2022-12-14T11:18:57.000Z</time>
      </trkpt>
      <trkpt lat="43.92889" lon="2.37453">
        <ele>254</ele>
        <time>2022-12-14T11:19:18.000Z</time>
      </trkpt>
      <trkpt lat="43.92879" lon="2.37489">
        <ele>257</ele>
        <time>2022-12-14T11:20:02.000Z</time>
      </trkpt>
      <trkpt lat="43.92875" lon="2.37529">
        <ele>255</ele>
        <time>2022-12-14T11:20:22.000Z</time>
      </trkpt>
      <trkpt lat="43.92886" lon="2.37548">
        <ele>248</ele>
        <time>2022-12-14T11:20:50.000Z</time>
      </trkpt>
      <trkpt lat="43.92865" lon="2.37562">
        <ele>250</ele>
        <time>2022-12-14T11:21:23.000Z</time>
      </trkpt>
      <trkpt lat="43.92843" lon="2.3757">
        <ele>251</ele>
        <time>2022-12-14T11:23:05.000Z</time>
      </trkpt>
      <trkpt lat="43.92823" lon="2.37587">
        <ele>248</ele>
        <time>2022-12-14T11:23:29.000Z</time>
      </trkpt>
      <trkpt lat="43.92811" lon="2.37616">
        <ele>237</ele>
        <time>2022-12-14T11:23:51.000Z</time>
      </trkpt>
      <trkpt lat="43.928" lon="2.37632">
        <ele>235</ele>
        <time>2022-12-14T11:24:16.000Z</time>
      </trkpt>
      <trkpt lat="43.92783" lon="2.37646">
        <ele>235</ele>
        <time>2022-12-14T11:24:43.000Z</time>
      </trkpt>
      <trkpt lat="43.9276" lon="2.37652">
        <ele>238</ele>
        <time>2022-12-14T11:25:04.000Z</time>
      </trkpt>
      <trkpt lat="43.9274" lon="2.37654">
        <ele>242</ele>
        <time>2022-12-14T11:26:00.000Z</time>
      </trkpt>
      <trkpt lat="43.92719" lon="2.37695">
        <ele>239</ele>
        <time>2022-12-14T11:26:22.000Z</time>
      </trkpt>
      <trkpt lat="43.92709" lon="2.37723">
        <ele>237</ele>
        <time>2022-12-14T11:26:45.000Z</time>
      </trkpt>
      <trkpt lat="43.92689" lon="2.37738">
        <ele>238</ele>
        <time>2022-12-14T11:27:05.000Z</time>
      </trkpt>
      <trkpt lat="43.92667" lon="2.37748">
        <ele>239</ele>
        <time>2022-12-14T11:27:30.000Z</time>
      </trkpt>
      <trkpt lat="43.92634" lon="2.37748">
        <ele>240</ele>
        <time>2022-12-14T11:27:52.000Z</time>
      </trkpt>
      <trkpt lat="43.92608" lon="2.37752">
        <ele>237</ele>
        <time>2022-12-14T11:28:51.000Z</time>
      </trkpt>
      <trkpt lat="43.92598" lon="2.37805">
        <ele>236</ele>
        <time>2022-12-14T11:29:21.000Z</time>
      </trkpt>
      <trkpt lat="43.92596" lon="2.3785">
        <ele>245</ele>
        <time>2022-12-14T11:29:40.000Z</time>
      </trkpt>
      <trkpt lat="43.92618" lon="2.37855">
        <ele>246</ele>
        <time>2022-12-14T11:30:02.000Z</time>
      </trkpt>
      <trkpt lat="43.92641" lon="2.37856">
        <ele>247</ele>
        <time>2022-12-14T11:30:22.000Z</time>
      </trkpt>
      <trkpt lat="43.92659" lon="2.37838">
        <ele>242</ele>
        <time>2022-12-14T11:30:41.000Z</time>
      </trkpt>
      <trkpt lat="43.92682" lon="2.37832">
        <ele>241</ele>
        <time>2022-12-14T11:31:01.000Z</time>
      </trkpt>
      <trkpt lat="43.92703" lon="2.37824">
        <ele>241</ele>
        <time>2022-12-14T11:31:17.000Z</time>
      </trkpt>
      <trkpt lat="43.92723" lon="2.37806">
        <ele>241</ele>
        <time>2022-12-14T11:31:39.000Z</time>
      </trkpt>
      <trkpt lat="43.92746" lon="2.37801">
        <ele>242</ele>
        <time>2022-12-14T11:32:01.000Z</time>
      </trkpt>
      <trkpt lat="43.9277" lon="2.37804">
        <ele>245</ele>
        <time>2022-12-14T11:32:22.000Z</time>
      </trkpt>
      <trkpt lat="43.92793" lon="2.37806">
        <ele>249</ele>
        <time>2022-12-14T11:32:49.000Z</time>
      </trkpt>
      <trkpt lat="43.92815" lon="2.37798">
        <ele>248</ele>
        <time>2022-12-14T11:33:20.000Z</time>
      </trkpt>
      <trkpt lat="43.92838" lon="2.37789">
        <ele>249</ele>
        <time>2022-12-14T11:33:40.000Z</time>
      </trkpt>
      <trkpt lat="43.92861" lon="2.37787">
        <ele>258</ele>
        <time>2022-12-14T11:34:01.000Z</time>
      </trkpt>
      <trkpt lat="43.92885" lon="2.3779">
        <ele>258</ele>
        <time>2022-12-14T11:34:20.000Z</time>
      </trkpt>
      <trkpt lat="43.92908" lon="2.37794">
        <ele>259</ele>
        <time>2022-12-14T11:34:43.000Z</time>
      </trkpt>
      <trkpt lat="43.9293" lon="2.37802">
        <ele>263</ele>
        <time>2022-12-14T11:35:02.000Z</time>
      </trkpt>
      <trkpt lat="43.92953" lon="2.37806">
        <ele>264</ele>
        <time>2022-12-14T11:35:30.000Z</time>
      </trkpt>
      <trkpt lat="43.92976" lon="2.37807">
        <ele>264</ele>
        <time>2022-12-14T11:35:50.000Z</time>
      </trkpt>
      <trkpt lat="43.92998" lon="2.378">
        <ele>265</ele>
        <time>2022-12-14T11:36:07.000Z</time>
      </trkpt>
      <trkpt lat="43.93022" lon="2.37801">
        <ele>264</ele>
        <time>2022-12-14T11:36:29.000Z</time>
      </trkpt>
      <trkpt lat="43.93045" lon="2.37806">
        <ele>262</ele>
        <time>2022-12-14T11:36:49.000Z</time>
      </trkpt>
      <trkpt lat="43.93065" lon="2.37821">
        <ele>261</ele>
        <time>2022-12-14T11:37:06.000Z</time>
      </trkpt>
      <trkpt lat="43.93081" lon="2.37843">
        <ele>259</ele>
        <time>2022-12-14T11:37:24.000Z</time>
      </trkpt>
      <trkpt lat="43.93091" lon="2.37873">
        <ele>258</ele>
        <time>2022-12-14T11:37:43.000Z</time>
      </trkpt>
      <trkpt lat="43.93097" lon="2.37905">
        <ele>258</ele>
        <time>2022-12-14T11:38:10.000Z</time>
      </trkpt>
      <trkpt lat="43.93097" lon="2.37936">
        <ele>259</ele>
        <time>2022-12-14T11:38:35.000Z</time>
      </trkpt>
      <trkpt lat="43.931" lon="2.37967">
        <ele>260</ele>
        <time>2022-12-14T11:39:00.000Z</time>
      </trkpt>
      <trkpt lat="43.93107" lon="2.37997">
        <ele>262</ele>
        <time>2022-12-14T11:39:24.000Z</time>
      </trkpt>
      <trkpt lat="43.93113" lon="2.38027">
        <ele>264</ele>
        <time>2022-12-14T11:39:41.000Z</time>
      </trkpt>
      <trkpt lat="43.93116" lon="2.38059">
        <ele>266</ele>
        <time>2022-12-14T11:40:01.000Z</time>
      </trkpt>
      <trkpt lat="43.93118" lon="2.38091">
        <ele>268</ele>
        <time>2022-12-14T11:40:29.000Z</time>
      </trkpt>
      <trkpt lat="43.93118" lon="2.38125">
        <ele>270</ele>
        <time>2022-12-14T11:40:49.000Z</time>
      </trkpt>
      <trkpt lat="43.9312" lon="2.38157">
        <ele>272</ele>
        <time>2022-12-14T11:41:10.000Z</time>
      </trkpt>
      <trkpt lat="43.93121" lon="2.38189">
        <ele>273</ele>
        <time>2022-12-14T11:41:30.000Z</time>
      </trkpt>
      <trkpt lat="43.93124" lon="2.3822">
        <ele>275</ele>
        <time>2022-12-14T11:41:50.000Z</time>
      </trkpt>
      <trkpt lat="43.93126" lon="2.38252">
        <ele>276</ele>
        <time>2022-12-14T11:42:11.000Z</time>
      </trkpt>
      <trkpt lat="43.93129" lon="2.38284">
        <ele>278</ele>
        <time>2022-12-14T11:42:32.000Z</time>
      </trkpt>
      <trkpt lat="43.93137" lon="2.38313">
        <ele>279</ele>
        <time>2022-12-14T11:42:51.000Z</time>
      </trkpt>
      <trkpt lat="43.93157" lon="2.38332">
        <ele>279</ele>
        <time>2022-12-14T11:43:18.000Z</time>
      </trkpt>
      <trkpt lat="43.9318" lon="2.3833">
        <ele>279</ele>
        <time>2022-12-14T11:43:37.000Z</time>
      </trkpt>
      <trkpt lat="43.93202" lon="2.38326">
        <ele>279</ele>
        <time>2022-12-14T11:43:55.000Z</time>
      </trkpt>
      <trkpt lat="43.93225" lon="2.38323">
        <ele>281</ele>
        <time>2022-12-14T11:44:14.000Z</time>
      </trkpt>
      <trkpt lat="43.93248" lon="2.38325">
        <ele>282</ele>
        <time>2022-12-14T11:44:36.000Z</time>
      </trkpt>
      <trkpt lat="43.93271" lon="2.38327">
        <ele>285</ele>
        <time>2022-12-14T11:44:56.000Z</time>
      </trkpt>
      <trkpt lat="43.93294" lon="2.38329">
        <ele>287</ele>
        <time>2022-12-14T11:45:18.000Z</time>
      </trkpt>
      <trkpt lat="43.93316" lon="2.38338">
        <ele>289</ele>
        <time>2022-12-14T11:46:04.000Z</time>
      </trkpt>
      <trkpt lat="43.93325" lon="2.38363">
        <ele>289</ele>
        <time>2022-12-14T11:46:13.000Z</time>
      </trkpt>
      <trkpt lat="43.9336" lon="2.38354">
        <ele>291</ele>
        <time>2022-12-14T11:46:33.000Z</time>
      </trkpt>
      <trkpt lat="43.93384" lon="2.38356">
        <ele>294</ele>
        <time>2022-12-14T11:46:54.000Z</time>
      </trkpt>
      <trkpt lat="43.93407" lon="2.38359">
        <ele>297</ele>
        <time>2022-12-14T11:47:17.000Z</time>
      </trkpt>
      <trkpt lat="43.93429" lon="2.38361">
        <ele>301</ele>
        <time>2022-12-14T11:47:52.000Z</time>
      </trkpt>
      <trkpt lat="43.93453" lon="2.3836">
        <ele>309</ele>
        <time>2022-12-14T11:48:27.000Z</time>
      </trkpt>
      <trkpt lat="43.93475" lon="2.38352">
        <ele>309</ele>
        <time>2022-12-14T12:10:37.000Z</time>
      </trkpt>
      <trkpt lat="43.93494" lon="2.38308">
        <ele>299</ele>
        <time>2022-12-14T12:11:16.000Z</time>
      </trkpt>
      <trkpt lat="43.93508" lon="2.38332">
        <ele>292</ele>
        <time>2022-12-14T12:12:27.000Z</time>
      </trkpt>
      <trkpt lat="43.93524" lon="2.38355">
        <ele>287</ele>
        <time>2022-12-14T12:12:57.000Z</time>
      </trkpt>
      <trkpt lat="43.93538" lon="2.38381">
        <ele>283</ele>
        <time>2022-12-14T12:13:19.000Z</time>
      </trkpt>
      <trkpt lat="43.93558" lon="2.38398">
        <ele>277</ele>
        <time>2022-12-14T12:13:44.000Z</time>
      </trkpt>
      <trkpt lat="43.93577" lon="2.38416">
        <ele>274</ele>
        <time>2022-12-14T12:14:09.000Z</time>
      </trkpt>
      <trkpt lat="43.93594" lon="2.38435">
        <ele>271</ele>
        <time>2022-12-14T12:14:37.000Z</time>
      </trkpt>
      <trkpt lat="43.93614" lon="2.38453">
        <ele>269</ele>
        <time>2022-12-14T12:15:03.000Z</time>
      </trkpt>
      <trkpt lat="43.93635" lon="2.38465">
        <ele>265</ele>
        <time>2022-12-14T12:15:31.000Z</time>
      </trkpt>
      <trkpt lat="43.93657" lon="2.38471">
        <ele>260</ele>
        <time>2022-12-14T12:16:02.000Z</time>
      </trkpt>
      <trkpt lat="43.9368" lon="2.38477">
        <ele>257</ele>
        <time>2022-12-14T12:16:38.000Z</time>
      </trkpt>
      <trkpt lat="43.93702" lon="2.3848">
        <ele>253</ele>
        <time>2022-12-14T12:17:04.000Z</time>
      </trkpt>
      <trkpt lat="43.93725" lon="2.38483">
        <ele>249</ele>
        <time>2022-12-14T12:17:44.000Z</time>
      </trkpt>
      <trkpt lat="43.93746" lon="2.38497">
        <ele>244</ele>
        <time>2022-12-14T12:18:20.000Z</time>
      </trkpt>
      <trkpt lat="43.93766" lon="2.38514">
        <ele>241</ele>
        <time>2022-12-14T12:19:05.000Z</time>
      </trkpt>
      <trkpt lat="43.93788" lon="2.38523">
        <ele>237</ele>
        <time>2022-12-14T12:19:49.000Z</time>
      </trkpt>
      <trkpt lat="43.9381" lon="2.38533">
        <ele>233</ele>
        <time>2022-12-14T12:20:21.000Z</time>
      </trkpt>
      <trkpt lat="43.9383" lon="2.38547">
        <ele>230</ele>
        <time>2022-12-14T12:20:45.000Z</time>
      </trkpt>
      <trkpt lat="43.93852" lon="2.3856">
        <ele>227</ele>
        <time>2022-12-14T12:21:10.000Z</time>
      </trkpt>
      <trkpt lat="43.93874" lon="2.38569">
        <ele>221</ele>
        <time>2022-12-14T12:21:40.000Z</time>
      </trkpt>
      <trkpt lat="43.93896" lon="2.38577">
        <ele>217</ele>
        <time>2022-12-14T12:22:09.000Z</time>
      </trkpt>
      <trkpt lat="43.93919" lon="2.38586">
        <ele>215</ele>
        <time>2022-12-14T12:22:41.000Z</time>
      </trkpt>
      <trkpt lat="43.93942" lon="2.38591">
        <ele>209</ele>
        <time>2022-12-14T12:23:07.000Z</time>
      </trkpt>
      <trkpt lat="43.93965" lon="2.38594">
        <ele>206</ele>
        <time>2022-12-14T12:23:31.000Z</time>
      </trkpt>
      <trkpt lat="43.93987" lon="2.38586">
        <ele>205</ele>
        <time>2022-12-14T12:23:55.000Z</time>
      </trkpt>
      <trkpt lat="43.94006" lon="2.3857">
        <ele>204</ele>
        <time>2022-12-14T12:24:37.000Z</time>
      </trkpt>
      <trkpt lat="43.94019" lon="2.38543">
        <ele>201</ele>
        <time>2022-12-14T12:25:53.000Z</time>
      </trkpt>
      <trkpt lat="43.94008" lon="2.38514">
        <ele>202</ele>
        <time>2022-12-14T12:26:50.000Z</time>
      </trkpt>
      <trkpt lat="43.9401" lon="2.38483">
        <ele>203</ele>
        <time>2022-12-14T12:27:12.000Z</time>
      </trkpt>
      <trkpt lat="43.94024" lon="2.38458">
        <ele>204</ele>
        <time>2022-12-14T12:27:34.000Z</time>
      </trkpt>
      <trkpt lat="43.94038" lon="2.38433">
        <ele>204</ele>
        <time>2022-12-14T12:27:54.000Z</time>
      </trkpt>
      <trkpt lat="43.94048" lon="2.38403">
        <ele>206</ele>
        <time>2022-12-14T12:28:15.000Z</time>
      </trkpt>
      <trkpt lat="43.94063" lon="2.3838">
        <ele>205</ele>
        <time>2022-12-14T12:28:35.000Z</time>
      </trkpt>
      <trkpt lat="43.94072" lon="2.38349">
        <ele>207</ele>
        <time>2022-12-14T12:28:55.000Z</time>
      </trkpt>
      <trkpt lat="43.94079" lon="2.38319">
        <ele>210</ele>
        <time>2022-12-14T12:29:12.000Z</time>
      </trkpt>
      <trkpt lat="43.94089" lon="2.38262">
        <ele>212</ele>
        <time>2022-12-14T12:30:21.000Z</time>
      </trkpt>
      <trkpt lat="43.94114" lon="2.3822">
        <ele>211</ele>
        <time>2022-12-14T12:29:33.000Z</time>
      </trkpt>
      <trkpt lat="43.94114" lon="2.38272">
        <ele>208</ele>
        <time>2022-12-14T12:30:16.000Z</time>
      </trkpt>
      <trkpt lat="43.94114" lon="2.38325">
        <ele>206</ele>
        <time>2022-12-14T12:32:14.000Z</time>
      </trkpt>
      <trkpt lat="43.94124" lon="2.38278">
        <ele>205</ele>
        <time>2022-12-14T12:32:54.000Z</time>
      </trkpt>
      <trkpt lat="43.94135" lon="2.38232">
        <ele>205</ele>
        <time>2022-12-14T12:32:35.000Z</time>
      </trkpt>
      <trkpt lat="43.94144" lon="2.38202">
        <ele>204</ele>
        <time>2022-12-14T12:32:53.000Z</time>
      </trkpt>
      <trkpt lat="43.9415" lon="2.38178">
        <ele>206</ele>
        <time>2022-12-14T12:33:10.000Z</time>
      </trkpt>
      <trkpt lat="43.94163" lon="2.38147">
        <ele>202</ele>
        <time>2022-12-14T12:35:10.000Z</time>
      </trkpt>
      <trkpt lat="43.9417" lon="2.38116">
        <ele>203</ele>
        <time>2022-12-14T12:36:08.000Z</time>
      </trkpt>
      <trkpt lat="43.94177" lon="2.38085">
        <ele>204</ele>
        <time>2022-12-14T12:36:40.000Z</time>
      </trkpt>
      <trkpt lat="43.94191" lon="2.3806">
        <ele>199</ele>
        <time>2022-12-14T12:37:35.000Z</time>
      </trkpt>
      <trkpt lat="43.94196" lon="2.38029">
        <ele>204</ele>
        <time>2022-12-14T12:37:54.000Z</time>
      </trkpt>
      <trkpt lat="43.94207" lon="2.38">
        <ele>202</ele>
        <time>2022-12-14T12:38:12.000Z</time>
      </trkpt>
      <trkpt lat="43.94221" lon="2.37973">
        <ele>204</ele>
        <time>2022-12-14T12:38:29.000Z</time>
      </trkpt>
      <trkpt lat="43.94232" lon="2.37945">
        <ele>204</ele>
        <time>2022-12-14T12:38:47.000Z</time>
      </trkpt>
      <trkpt lat="43.94244" lon="2.37918">
        <ele>205</ele>
        <time>2022-12-14T12:39:05.000Z</time>
      </trkpt>
      <trkpt lat="43.94258" lon="2.37893">
        <ele>204</ele>
        <time>2022-12-14T12:39:23.000Z</time>
      </trkpt>
      <trkpt lat="43.9428" lon="2.37879">
        <ele>203</ele>
        <time>2022-12-14T12:39:42.000Z</time>
      </trkpt>
      <trkpt lat="43.94299" lon="2.37862">
        <ele>197</ele>
        <time>2022-12-14T12:40:12.000Z</time>
      </trkpt>
      <trkpt lat="43.94319" lon="2.37844">
        <ele>199</ele>
        <time>2022-12-14T12:40:31.000Z</time>
      </trkpt>
      <trkpt lat="43.94338" lon="2.37826">
        <ele>204</ele>
        <time>2022-12-14T12:41:05.000Z</time>
      </trkpt>
      <trkpt lat="43.94356" lon="2.37807">
        <ele>206</ele>
        <time>2022-12-14T12:41:52.000Z</time>
      </trkpt>
      <trkpt lat="43.94375" lon="2.3779">
        <ele>210</ele>
        <time>2022-12-14T12:42:15.000Z</time>
      </trkpt>
      <trkpt lat="43.94398" lon="2.37793">
        <ele>211</ele>
        <time>2022-12-14T12:42:42.000Z</time>
      </trkpt>
      <trkpt lat="43.94418" lon="2.37807">
        <ele>207</ele>
        <time>2022-12-14T12:43:28.000Z</time>
      </trkpt>
      <trkpt lat="43.94443" lon="2.37812">
        <ele>205</ele>
        <time>2022-12-14T12:43:57.000Z</time>
      </trkpt>
      <trkpt lat="43.94463" lon="2.37792">
        <ele>227</ele>
        <time>2022-12-14T12:43:49.000Z</time>
      </trkpt>
      <trkpt lat="43.94497" lon="2.37783">
        <ele>204</ele>
        <time>2022-12-14T12:45:10.000Z</time>
      </trkpt>
      <trkpt lat="43.94519" lon="2.37799">
        <ele>202</ele>
        <time>2022-12-14T12:45:25.000Z</time>
      </trkpt>
      <trkpt lat="43.94538" lon="2.37816">
        <ele>199</ele>
        <time>2022-12-14T12:45:50.000Z</time>
      </trkpt>
      <trkpt lat="43.9456" lon="2.37829">
        <ele>197</ele>
        <time>2022-12-14T12:46:11.000Z</time>
      </trkpt>
      <trkpt lat="43.94582" lon="2.3784">
        <ele>196</ele>
        <time>2022-12-14T12:46:30.000Z</time>
      </trkpt>
      <trkpt lat="43.94605" lon="2.37837">
        <ele>195</ele>
        <time>2022-12-14T12:46:55.000Z</time>
      </trkpt>
      <trkpt lat="43.94627" lon="2.37848">
        <ele>195</ele>
        <time>2022-12-14T12:47:35.000Z</time>
      </trkpt>
      <trkpt lat="43.94649" lon="2.3786">
        <ele>195</ele>
        <time>2022-12-14T12:48:08.000Z</time>
      </trkpt>
      <trkpt lat="43.94695" lon="2.37875">
        <ele>194</ele>
        <time>2022-12-14T12:48:35.000Z</time>
      </trkpt>
      <trkpt lat="43.94663" lon="2.37924">
        <ele>193</ele>
        <time>2022-12-14T12:50:06.000Z</time>
      </trkpt>
      <trkpt lat="43.94634" lon="2.37974">
        <ele>192</ele>
        <time>2022-12-14T12:51:04.000Z</time>
      </trkpt>
      <trkpt lat="43.94591" lon="2.38048">
        <ele>197</ele>
        <time>2022-12-14T12:53:19.000Z</time>
      </trkpt>
      <trkpt lat="43.94591" lon="2.38045">
        <ele>196</ele>
        <time>2022-12-14T12:57:18.000Z</time>
      </trkpt>
      <trkpt lat="43.94634" lon="2.37979">
        <ele>192</ele>
        <time>2022-12-14T12:58:03.000Z</time>
      </trkpt>
      <trkpt lat="43.94664" lon="2.37926">
        <ele>193</ele>
        <time>2022-12-14T12:59:08.000Z</time>
      </trkpt>
      <trkpt lat="43.94692" lon="2.37877">
        <ele>194</ele>
        <time>2022-12-14T13:02:59.000Z</time>
      </trkpt>
      <trkpt lat="43.94692" lon="2.37904">
        <ele>196</ele>
        <time>2022-12-14T13:03:41.000Z</time>
      </trkpt>
      <trkpt lat="43.94719" lon="2.37919">
        <ele>203</ele>
        <time>2022-12-14T13:05:35.000Z</time>
      </trkpt>
      <trkpt lat="43.94745" lon="2.37916">
        <ele>202</ele>
        <time>2022-12-14T13:05:58.000Z</time>
      </trkpt>
      <trkpt lat="43.94769" lon="2.37921">
        <ele>201</ele>
        <time>2022-12-14T13:06:16.000Z</time>
      </trkpt>
      <trkpt lat="43.94789" lon="2.37935">
        <ele>207</ele>
        <time>2022-12-14T13:07:03.000Z</time>
      </trkpt>
      <trkpt lat="43.94818" lon="2.37944">
        <ele>214</ele>
        <time>2022-12-14T13:07:40.000Z</time>
      </trkpt>
      <trkpt lat="43.94786" lon="2.37956">
        <ele>222</ele>
        <time>2022-12-14T13:09:42.000Z</time>
      </trkpt>
      <trkpt lat="43.94764" lon="2.37963">
        <ele>224</ele>
        <time>2022-12-14T13:10:32.000Z</time>
      </trkpt>
      <trkpt lat="43.94787" lon="2.37969">
        <ele>227</ele>
        <time>2022-12-14T13:12:07.000Z</time>
      </trkpt>
      <trkpt lat="43.94808" lon="2.3798">
        <ele>233</ele>
        <time>2022-12-14T13:12:58.000Z</time>
      </trkpt>
      <trkpt lat="43.9483" lon="2.37986">
        <ele>237</ele>
        <time>2022-12-14T13:13:46.000Z</time>
      </trkpt>
      <trkpt lat="43.94853" lon="2.37992">
        <ele>240</ele>
        <time>2022-12-14T13:14:15.000Z</time>
      </trkpt>
      <trkpt lat="43.94876" lon="2.37995">
        <ele>243</ele>
        <time>2022-12-14T13:14:55.000Z</time>
      </trkpt>
      <trkpt lat="43.94899" lon="2.37997">
        <ele>248</ele>
        <time>2022-12-14T13:15:29.000Z</time>
      </trkpt>
      <trkpt lat="43.94935" lon="2.3801">
        <ele>257</ele>
        <time>2022-12-14T13:16:13.000Z</time>
      </trkpt>
      <trkpt lat="43.94904" lon="2.38034">
        <ele>266</ele>
        <time>2022-12-14T13:18:17.000Z</time>
      </trkpt>
      <trkpt lat="43.94925" lon="2.3805">
        <ele>274</ele>
        <time>2022-12-14T13:19:17.000Z</time>
      </trkpt>
      <trkpt lat="43.9496" lon="2.38041">
        <ele>280</ele>
        <time>2022-12-14T13:21:00.000Z</time>
      </trkpt>
      <trkpt lat="43.94997" lon="2.38059">
        <ele>288</ele>
        <time>2022-12-14T13:20:27.000Z</time>
      </trkpt>
      <trkpt lat="43.94947" lon="2.3807">
        <ele>290</ele>
        <time>2022-12-14T13:24:36.000Z</time>
      </trkpt>
      <trkpt lat="43.94935" lon="2.38097">
        <ele>293</ele>
        <time>2022-12-14T13:25:03.000Z</time>
      </trkpt>
      <trkpt lat="43.94913" lon="2.38103">
        <ele>294</ele>
        <time>2022-12-14T13:25:50.000Z</time>
      </trkpt>
      <trkpt lat="43.94934" lon="2.38099">
        <ele>293</ele>
        <time>2022-12-14T13:28:07.000Z</time>
      </trkpt>
      <trkpt lat="43.94946" lon="2.38069">
        <ele>289</ele>
        <time>2022-12-14T13:28:35.000Z</time>
      </trkpt>
      <trkpt lat="43.94997" lon="2.38061">
        <ele>289</ele>
        <time>2022-12-14T13:36:17.000Z</time>
      </trkpt>
      <trkpt lat="43.95019" lon="2.38072">
        <ele>291</ele>
        <time>2022-12-14T13:37:04.000Z</time>
      </trkpt>
      <trkpt lat="43.95041" lon="2.38082">
        <ele>292</ele>
        <time>2022-12-14T13:36:37.000Z</time>
      </trkpt>
      <trkpt lat="43.95064" lon="2.38083">
        <ele>289</ele>
        <time>2022-12-14T13:39:27.000Z</time>
      </trkpt>
      <trkpt lat="43.95087" lon="2.38084">
        <ele>288</ele>
        <time>2022-12-14T13:39:46.000Z</time>
      </trkpt>
      <trkpt lat="43.9511" lon="2.38085">
        <ele>287</ele>
        <time>2022-12-14T13:40:20.000Z</time>
      </trkpt>
      <trkpt lat="43.95132" lon="2.38082">
        <ele>287</ele>
        <time>2022-12-14T13:40:39.000Z</time>
      </trkpt>
      <trkpt lat="43.95155" lon="2.38078">
        <ele>287</ele>
        <time>2022-12-14T13:41:09.000Z</time>
      </trkpt>
      <trkpt lat="43.95177" lon="2.3807">
        <ele>286</ele>
        <time>2022-12-14T13:41:46.000Z</time>
      </trkpt>
      <trkpt lat="43.95199" lon="2.38062">
        <ele>285</ele>
        <time>2022-12-14T13:42:03.000Z</time>
      </trkpt>
      <trkpt lat="43.95221" lon="2.38053">
        <ele>283</ele>
        <time>2022-12-14T13:42:20.000Z</time>
      </trkpt>
      <trkpt lat="43.95243" lon="2.38044">
        <ele>282</ele>
        <time>2022-12-14T13:42:46.000Z</time>
      </trkpt>
      <trkpt lat="43.95266" lon="2.38036">
        <ele>282</ele>
        <time>2022-12-14T13:43:06.000Z</time>
      </trkpt>
      <trkpt lat="43.95288" lon="2.38029">
        <ele>281</ele>
        <time>2022-12-14T13:43:21.000Z</time>
      </trkpt>
      <trkpt lat="43.95309" lon="2.38018">
        <ele>280</ele>
        <time>2022-12-14T13:43:38.000Z</time>
      </trkpt>
      <trkpt lat="43.95332" lon="2.38008">
        <ele>278</ele>
        <time>2022-12-14T13:43:57.000Z</time>
      </trkpt>
      <trkpt lat="43.95355" lon="2.38001">
        <ele>277</ele>
        <time>2022-12-14T13:44:13.000Z</time>
      </trkpt>
      <trkpt lat="43.95378" lon="2.37992">
        <ele>277</ele>
        <time>2022-12-14T13:44:36.000Z</time>
      </trkpt>
      <trkpt lat="43.954" lon="2.37988">
        <ele>276</ele>
        <time>2022-12-14T13:44:56.000Z</time>
      </trkpt>
      <trkpt lat="43.95423" lon="2.37988">
        <ele>275</ele>
        <time>2022-12-14T13:45:15.000Z</time>
      </trkpt>
      <trkpt lat="43.95445" lon="2.37994">
        <ele>270</ele>
        <time>2022-12-14T13:45:38.000Z</time>
      </trkpt>
      <trkpt lat="43.95468" lon="2.37995">
        <ele>268</ele>
        <time>2022-12-14T13:45:57.000Z</time>
      </trkpt>
      <trkpt lat="43.95491" lon="2.37996">
        <ele>265</ele>
        <time>2022-12-14T13:46:21.000Z</time>
      </trkpt>
      <trkpt lat="43.95515" lon="2.37998">
        <ele>261</ele>
        <time>2022-12-14T13:46:44.000Z</time>
      </trkpt>
      <trkpt lat="43.95538" lon="2.37996">
        <ele>259</ele>
        <time>2022-12-14T13:47:08.000Z</time>
      </trkpt>
      <trkpt lat="43.95561" lon="2.37993">
        <ele>256</ele>
        <time>2022-12-14T13:47:26.000Z</time>
      </trkpt>
      <trkpt lat="43.95582" lon="2.3798">
        <ele>253</ele>
        <time>2022-12-14T13:47:50.000Z</time>
      </trkpt>
      <trkpt lat="43.95603" lon="2.37968">
        <ele>251</ele>
        <time>2022-12-14T13:48:17.000Z</time>
      </trkpt>
      <trkpt lat="43.95576" lon="2.38011">
        <ele>244</ele>
        <time>2022-12-14T13:51:33.000Z</time>
      </trkpt>
      <trkpt lat="43.9561" lon="2.38005">
        <ele>240</ele>
        <time>2022-12-14T13:51:50.000Z</time>
      </trkpt>
      <trkpt lat="43.95632" lon="2.37997">
        <ele>237</ele>
        <time>2022-12-14T13:52:06.000Z</time>
      </trkpt>
      <trkpt lat="43.95652" lon="2.37979">
        <ele>233</ele>
        <time>2022-12-14T13:52:25.000Z</time>
      </trkpt>
      <trkpt lat="43.95664" lon="2.37951">
        <ele>232</ele>
        <time>2022-12-14T13:52:44.000Z</time>
      </trkpt>
      <trkpt lat="43.95672" lon="2.3792">
        <ele>228</ele>
        <time>2022-12-14T13:53:02.000Z</time>
      </trkpt>
      <trkpt lat="43.95678" lon="2.3789">
        <ele>226</ele>
        <time>2022-12-14T13:53:20.000Z</time>
      </trkpt>
      <trkpt lat="43.95688" lon="2.37861">
        <ele>223</ele>
        <time>2022-12-14T13:53:39.000Z</time>
      </trkpt>
      <trkpt lat="43.95698" lon="2.37832">
        <ele>219</ele>
        <time>2022-12-14T13:54:30.000Z</time>
      </trkpt>
      <trkpt lat="43.957" lon="2.378">
        <ele>218</ele>
        <time>2022-12-14T13:55:12.000Z</time>
      </trkpt>
      <trkpt lat="43.95698" lon="2.37767">
        <ele>215</ele>
        <time>2022-12-14T13:55:30.000Z</time>
      </trkpt>
      <trkpt lat="43.95697" lon="2.37734">
        <ele>211</ele>
        <time>2022-12-14T13:56:13.000Z</time>
      </trkpt>
      <trkpt lat="43.95691" lon="2.37702">
        <ele>208</ele>
        <time>2022-12-14T13:56:29.000Z</time>
      </trkpt>
      <trkpt lat="43.95683" lon="2.37673">
        <ele>206</ele>
        <time>2022-12-14T13:56:42.000Z</time>
      </trkpt>
      <trkpt lat="43.95676" lon="2.37642">
        <ele>203</ele>
        <time>2022-12-14T13:56:59.000Z</time>
      </trkpt>
      <trkpt lat="43.95677" lon="2.3761">
        <ele>201</ele>
        <time>2022-12-14T13:57:15.000Z</time>
      </trkpt>
      <trkpt lat="43.95682" lon="2.37578">
        <ele>198</ele>
        <time>2022-12-14T13:57:31.000Z</time>
      </trkpt>
      <trkpt lat="43.95681" lon="2.37547">
        <ele>197</ele>
        <time>2022-12-14T13:57:50.000Z</time>
      </trkpt>
      <trkpt lat="43.95661" lon="2.37531">
        <ele>197</ele>
        <time>2022-12-14T13:58:05.000Z</time>
      </trkpt>
      <trkpt lat="43.95638" lon="2.37526">
        <ele>197</ele>
        <time>2022-12-14T13:58:21.000Z</time>
      </trkpt>
      <trkpt lat="43.95616" lon="2.37523">
        <ele>197</ele>
        <time>2022-12-14T13:58:35.000Z</time>
      </trkpt>
      <trkpt lat="43.95593" lon="2.3752">
        <ele>196</ele>
        <time>2022-12-14T13:58:51.000Z</time>
      </trkpt>
      <trkpt lat="43.9557" lon="2.3752">
        <ele>196</ele>
        <time>2022-12-14T13:59:09.000Z</time>
      </trkpt>
      <trkpt lat="43.95546" lon="2.37522">
        <ele>196</ele>
        <time>2022-12-14T13:59:26.000Z</time>
      </trkpt>
      <trkpt lat="43.95522" lon="2.37526">
        <ele>196</ele>
        <time>2022-12-14T13:59:46.000Z</time>
      </trkpt>
      <trkpt lat="43.955" lon="2.3753">
        <ele>196</ele>
        <time>2022-12-14T14:00:03.000Z</time>
      </trkpt>
      <trkpt lat="43.95477" lon="2.37538">
        <ele>196</ele>
        <time>2022-12-14T14:00:22.000Z</time>
      </trkpt>
      <trkpt lat="43.95454" lon="2.37545">
        <ele>196</ele>
        <time>2022-12-14T14:00:40.000Z</time>
      </trkpt>
      <trkpt lat="43.95432" lon="2.37554">
        <ele>196</ele>
        <time>2022-12-14T14:00:57.000Z</time>
      </trkpt>
      <trkpt lat="43.9541" lon="2.37561">
        <ele>196</ele>
        <time>2022-12-14T14:01:16.000Z</time>
      </trkpt>
      <trkpt lat="43.95387" lon="2.37569">
        <ele>196</ele>
        <time>2022-12-14T14:01:35.000Z</time>
      </trkpt>
      <trkpt lat="43.95365" lon="2.37577">
        <ele>196</ele>
        <time>2022-12-14T14:01:54.000Z</time>
      </trkpt>
      <trkpt lat="43.95342" lon="2.37584">
        <ele>196</ele>
        <time>2022-12-14T14:02:13.000Z</time>
      </trkpt>
      <trkpt lat="43.95319" lon="2.3759">
        <ele>196</ele>
        <time>2022-12-14T14:02:30.000Z</time>
      </trkpt>
      <trkpt lat="43.95296" lon="2.37597">
        <ele>196</ele>
        <time>2022-12-14T14:02:48.000Z</time>
      </trkpt>
      <trkpt lat="43.95273" lon="2.37604">
        <ele>196</ele>
        <time>2022-12-14T14:03:06.000Z</time>
      </trkpt>
      <trkpt lat="43.95251" lon="2.37609">
        <ele>195</ele>
        <time>2022-12-14T14:03:24.000Z</time>
      </trkpt>
      <trkpt lat="43.95228" lon="2.37616">
        <ele>196</ele>
        <time>2022-12-14T14:03:44.000Z</time>
      </trkpt>
      <trkpt lat="43.95206" lon="2.37621">
        <ele>196</ele>
        <time>2022-12-14T14:04:03.000Z</time>
      </trkpt>
      <trkpt lat="43.95183" lon="2.37629">
        <ele>196</ele>
        <time>2022-12-14T14:04:21.000Z</time>
      </trkpt>
      <trkpt lat="43.9516" lon="2.37633">
        <ele>195</ele>
        <time>2022-12-14T14:04:38.000Z</time>
      </trkpt>
      <trkpt lat="43.95137" lon="2.37641">
        <ele>195</ele>
        <time>2022-12-14T14:04:57.000Z</time>
      </trkpt>
      <trkpt lat="43.95114" lon="2.37644">
        <ele>195</ele>
        <time>2022-12-14T14:05:16.000Z</time>
      </trkpt>
      <trkpt lat="43.95091" lon="2.37644">
        <ele>195</ele>
        <time>2022-12-14T14:05:43.000Z</time>
      </trkpt>
      <trkpt lat="43.95069" lon="2.37653">
        <ele>194</ele>
        <time>2022-12-14T14:06:03.000Z</time>
      </trkpt>
      <trkpt lat="43.95047" lon="2.37663">
        <ele>195</ele>
        <time>2022-12-14T14:06:23.000Z</time>
      </trkpt>
      <trkpt lat="43.95024" lon="2.37671">
        <ele>194</ele>
        <time>2022-12-14T14:06:49.000Z</time>
      </trkpt>
      <trkpt lat="43.95001" lon="2.37679">
        <ele>194</ele>
        <time>2022-12-14T14:07:08.000Z</time>
      </trkpt>
      <trkpt lat="43.94979" lon="2.37688">
        <ele>194</ele>
        <time>2022-12-14T14:07:25.000Z</time>
      </trkpt>
      <trkpt lat="43.94958" lon="2.37697">
        <ele>194</ele>
        <time>2022-12-14T14:07:48.000Z</time>
      </trkpt>
      <trkpt lat="43.94937" lon="2.37709">
        <ele>194</ele>
        <time>2022-12-14T14:08:05.000Z</time>
      </trkpt>
      <trkpt lat="43.94914" lon="2.37719">
        <ele>195</ele>
        <time>2022-12-14T14:08:56.000Z</time>
      </trkpt>
      <trkpt lat="43.94895" lon="2.37736">
        <ele>194</ele>
        <time>2022-12-14T14:09:48.000Z</time>
      </trkpt>
      <trkpt lat="43.94875" lon="2.37751">
        <ele>194</ele>
        <time>2022-12-14T14:10:25.000Z</time>
      </trkpt>
      <trkpt lat="43.94855" lon="2.37765">
        <ele>194</ele>
        <time>2022-12-14T14:10:43.000Z</time>
      </trkpt>
      <trkpt lat="43.94836" lon="2.37784">
        <ele>195</ele>
        <time>2022-12-14T14:11:23.000Z</time>
      </trkpt>
      <trkpt lat="43.9481" lon="2.37811">
        <ele>195</ele>
        <time>2022-12-14T14:11:40.000Z</time>
      </trkpt>
      <trkpt lat="43.94815" lon="2.37836">
        <ele>196</ele>
        <time>2022-12-14T14:12:36.000Z</time>
      </trkpt>
      <trkpt lat="43.94812" lon="2.37868">
        <ele>196</ele>
        <time>2022-12-14T14:12:54.000Z</time>
      </trkpt>
      <trkpt lat="43.94801" lon="2.37897">
        <ele>197</ele>
        <time>2022-12-14T14:13:12.000Z</time>
      </trkpt>
      <trkpt lat="43.94781" lon="2.37914">
        <ele>200</ele>
        <time>2022-12-14T14:13:32.000Z</time>
      </trkpt>
      <trkpt lat="43.94758" lon="2.37908">
        <ele>198</ele>
        <time>2022-12-14T14:14:04.000Z</time>
      </trkpt>
      <trkpt lat="43.94737" lon="2.37895">
        <ele>197</ele>
        <time>2022-12-14T14:14:22.000Z</time>
      </trkpt>
      <trkpt lat="43.94728" lon="2.37867">
        <ele>195</ele>
        <time>2022-12-14T14:14:40.000Z</time>
      </trkpt>
      <trkpt lat="43.94714" lon="2.37861">
        <ele>194</ele>
        <time>2022-12-14T14:15:09.000Z</time>
      </trkpt>
      <trkpt lat="43.94692" lon="2.37882">
        <ele>194</ele>
        <time>2022-12-14T14:16:08.000Z</time>
      </trkpt>
      <trkpt lat="43.94649" lon="2.37859">
        <ele>195</ele>
        <time>2022-12-14T14:16:47.000Z</time>
      </trkpt>
      <trkpt lat="43.94628" lon="2.37846">
        <ele>195</ele>
        <time>2022-12-14T14:17:05.000Z</time>
      </trkpt>
      <trkpt lat="43.94606" lon="2.37837">
        <ele>195</ele>
        <time>2022-12-14T14:20:11.000Z</time>
      </trkpt>
      <trkpt lat="43.94581" lon="2.3784">
        <ele>196</ele>
        <time>2022-12-14T14:20:27.000Z</time>
      </trkpt>
      <trkpt lat="43.94559" lon="2.37829">
        <ele>198</ele>
        <time>2022-12-14T14:20:44.000Z</time>
      </trkpt>
      <trkpt lat="43.94538" lon="2.37816">
        <ele>198</ele>
        <time>2022-12-14T14:21:02.000Z</time>
      </trkpt>
      <trkpt lat="43.94518" lon="2.378">
        <ele>202</ele>
        <time>2022-12-14T14:21:24.000Z</time>
      </trkpt>
      <trkpt lat="43.94479" lon="2.37797">
        <ele>223</ele>
        <time>2022-12-14T14:21:39.000Z</time>
      </trkpt>
    </trkseg>
  </trk>
</gpx>